Weather at Ćemovsko Polje / Špiro Mugoša Airfield

Public forecast

Using degrees Celsius for public forecast. Weather courtesy of forecast.io.

Closest aviation weather report (METAR) to Ćemovsko Polje / Špiro Mugoša Airfield

Closest report is Podgorica Airport / Podgorica Golubovci Airbase, 4.2 nm (7.7 km) SSW. Retrieved 2022/06/24 23:00 UTC (12 minutes ago):

LYPG 242300Z 32003KT CAVOK 24/19 Q1013 NOSIG

Closest aviation forecast (TAF) to Ćemovsko Polje / Špiro Mugoša Airfield

Closest forecast is Podgorica Airport / Podgorica Golubovci Airbase, 4.2 nm (7.7 km) SSW. Retrieved 2022/06/24 18:21 UTC (5 hours ago):

TAF LYPG 241700Z 2418/2518 36005KT CAVOK TX34/2514Z TN21/2503Z PROB40 TEMPO 2512/2518 VRB15G25KT 5000 TSRA FEW033CB BKN040